createdAt,value
2023-03-11T00:01:31.237Z,11.90
2023-03-11T00:04:02.474Z,11.77
2023-03-11T00:06:30.928Z,11.90
2023-03-11T00:08:59.317Z,11.33
2023-03-11T00:11:29.877Z,11.60
2023-03-11T00:13:58.380Z,12.03
2023-03-11T00:16:27.059Z,11.70
2023-03-11T00:18:56.003Z,13.20
2023-03-11T00:21:26.161Z,12.03
2023-03-11T00:23:54.967Z,11.83
2023-03-11T00:26:23.658Z,11.30
2023-03-11T00:28:52.426Z,12.07
2023-03-11T00:31:21.073Z,11.67
2023-03-11T00:33:49.727Z,11.60
2023-03-11T00:36:28.891Z,12.13
2023-03-11T00:38:57.617Z,11.93
2023-03-11T00:41:26.426Z,11.80
2023-03-11T00:43:55.391Z,11.57
2023-03-11T00:46:24.891Z,11.50
2023-03-11T00:48:54.311Z,12.13
2023-03-11T00:51:23.386Z,12.33
2023-03-11T00:53:53.743Z,12.47
2023-03-11T00:56:22.632Z,12.43
2023-03-11T00:58:52.000Z,12.63
2023-03-11T01:01:22.089Z,12.67
2023-03-11T01:03:51.283Z,13.07
2023-03-11T01:06:19.651Z,11.83
2023-03-11T01:08:47.977Z,12.23
2023-03-11T01:11:18.308Z,12.53
2023-03-11T01:13:47.715Z,11.93
2023-03-11T01:16:16.413Z,11.80
2023-03-11T01:18:45.635Z,12.53
2023-03-11T01:21:14.505Z,12.20
2023-03-11T01:23:44.229Z,12.00
2023-03-11T01:26:13.513Z,12.57
2023-03-11T01:28:43.401Z,12.30
2023-03-11T01:31:12.349Z,11.47
2023-03-11T01:33:42.000Z,11.93
2023-03-11T01:36:10.986Z,12.67
2023-03-11T01:38:40.160Z,12.00
2023-03-11T01:41:11.295Z,12.53
2023-03-11T01:43:54.724Z,12.03
2023-03-11T01:46:28.256Z,12.20
2023-03-11T01:48:59.179Z,12.47
2023-03-11T01:51:33.388Z,12.27
2023-03-11T01:54:06.426Z,11.97
2023-03-11T01:56:36.564Z,11.90
2023-03-11T01:59:08.200Z,11.80
2023-03-11T02:01:43.248Z,12.00
2023-03-11T02:04:11.677Z,12.47
2023-03-11T02:06:40.753Z,11.87
2023-03-11T02:09:09.524Z,11.80
2023-03-11T02:11:38.263Z,11.70
2023-03-11T02:14:10.255Z,12.13
2023-03-11T02:16:39.418Z,11.93
2023-03-11T02:19:22.423Z,12.37
2023-03-11T02:21:53.265Z,12.63
2023-03-11T02:24:30.853Z,12.60
2023-03-11T02:27:02.997Z,12.23
2023-03-11T02:29:34.264Z,12.40
2023-03-11T02:32:08.854Z,11.90
2023-03-11T02:34:41.345Z,12.37
2023-03-11T02:37:12.545Z,12.40
2023-03-11T02:39:46.876Z,12.17
2023-03-11T02:42:21.061Z,12.53
2023-03-11T02:44:57.024Z,13.00
2023-03-11T02:47:27.767Z,12.20
2023-03-11T02:49:58.071Z,12.07
2023-03-11T02:52:30.020Z,12.40
2023-03-11T02:54:58.800Z,11.97
2023-03-11T02:57:31.418Z,12.93
2023-03-11T03:00:13.388Z,12.20
2023-03-11T03:02:46.187Z,12.27
2023-03-11T03:05:15.470Z,11.90
2023-03-11T03:07:44.068Z,12.10
2023-03-11T03:10:14.632Z,12.20
2023-03-11T03:12:45.054Z,13.60
2023-03-11T03:15:16.010Z,13.03
2023-03-11T03:17:46.349Z,12.20
2023-03-11T03:20:16.072Z,12.70
2023-03-11T03:22:50.089Z,12.47
2023-03-11T03:25:20.619Z,13.17
2023-03-11T03:27:50.722Z,12.83
2023-03-11T03:30:20.076Z,12.63
2023-03-11T03:32:49.291Z,12.10
2023-03-11T03:35:19.116Z,13.50
2023-03-11T03:38:10.589Z,12.63
2023-03-11T03:40:40.648Z,12.90
2023-03-11T03:43:10.945Z,12.20
2023-03-11T03:45:41.118Z,12.10
2023-03-11T03:48:09.618Z,12.20
2023-03-11T03:50:42.247Z,11.70
2023-03-11T03:53:13.972Z,12.40
2023-03-11T03:55:42.876Z,12.43
2023-03-11T03:58:13.388Z,11.80
2023-03-11T04:00:41.870Z,11.90
2023-03-11T04:03:10.281Z,11.80
2023-03-11T04:05:45.784Z,11.80
2023-03-11T04:08:15.519Z,12.40
2023-03-11T04:10:44.862Z,12.40
2023-03-11T04:13:14.482Z,13.13
2023-03-11T04:15:45.476Z,12.10
2023-03-11T04:18:13.889Z,12.10
2023-03-11T04:20:42.281Z,12.13
2023-03-11T04:23:11.074Z,12.20
2023-03-11T04:25:39.413Z,12.13
2023-03-11T04:28:07.756Z,12.30
2023-03-11T04:30:37.867Z,12.27
2023-03-11T04:33:06.210Z,12.60
2023-03-11T04:35:34.622Z,11.70
2023-03-11T04:38:03.195Z,12.43
2023-03-11T04:40:32.170Z,12.13
2023-03-11T04:43:00.784Z,12.07
2023-03-11T04:45:29.463Z,12.80
2023-03-11T04:48:00.966Z,11.73
2023-03-11T04:50:31.943Z,11.97
2023-03-11T04:53:00.264Z,12.47
2023-03-11T04:55:28.866Z,12.60
2023-03-11T04:57:57.348Z,13.00
2023-03-11T05:00:25.928Z,12.20
2023-03-11T05:03:05.213Z,12.50
2023-03-11T05:05:33.588Z,11.97
2023-03-11T05:08:02.103Z,12.30
2023-03-11T05:10:32.319Z,12.50
2023-03-11T05:13:03.845Z,12.03
2023-03-11T05:15:36.664Z,12.10
2023-03-11T05:18:06.894Z,12.43
2023-03-11T05:20:37.248Z,12.50
2023-03-11T05:23:06.024Z,12.30
2023-03-11T05:25:36.656Z,12.50
2023-03-11T05:28:06.320Z,12.83
2023-03-11T05:30:39.010Z,12.10
2023-03-11T05:33:09.248Z,12.97
2023-03-11T05:35:38.374Z,13.00
2023-03-11T05:38:07.862Z,13.30
2023-03-11T05:40:36.404Z,12.50
2023-03-11T05:43:05.045Z,12.10
2023-03-11T05:45:37.765Z,12.03
2023-03-11T05:48:08.544Z,12.10
2023-03-11T05:50:39.550Z,12.83
2023-03-11T05:53:08.302Z,12.53
2023-03-11T05:55:36.829Z,11.90
2023-03-11T05:58:06.077Z,12.00
2023-03-11T06:00:34.849Z,12.90
2023-03-11T06:03:05.531Z,13.03
2023-03-11T06:05:35.166Z,12.87
2023-03-11T06:08:03.893Z,12.00
2023-03-11T06:10:32.229Z,12.60
2023-03-11T06:13:00.540Z,12.67
2023-03-11T06:15:36.228Z,12.13
2023-03-11T06:18:05.888Z,12.70
2023-03-11T06:20:37.898Z,12.63
2023-03-11T06:23:06.317Z,12.40
2023-03-11T06:25:34.629Z,12.40
2023-03-11T06:28:03.077Z,12.90
2023-03-11T06:30:32.004Z,12.50
2023-03-11T06:33:07.209Z,12.20
2023-03-11T06:35:36.999Z,12.20
2023-03-11T06:38:05.296Z,11.83
2023-03-11T06:40:33.980Z,12.23
2023-03-11T06:43:02.319Z,12.03
2023-03-11T06:45:34.491Z,12.60
2023-03-11T06:48:03.300Z,12.00
2023-03-11T06:50:33.162Z,12.40
2023-03-11T06:53:06.688Z,12.30
2023-03-11T06:55:36.765Z,11.70
2023-03-11T06:58:06.119Z,12.47
2023-03-11T07:00:34.934Z,12.10
2023-03-11T07:03:04.776Z,12.47
2023-03-11T07:05:33.331Z,12.50
2023-03-11T07:08:08.664Z,11.90
2023-03-11T07:10:37.196Z,12.57
2023-03-11T07:13:05.636Z,11.80
2023-03-11T07:15:33.916Z,15.23
2023-03-11T07:18:02.490Z,14.53
2023-03-11T07:20:30.797Z,16.90
2023-03-11T07:22:59.080Z,14.17
2023-03-11T07:25:28.851Z,12.83
2023-03-11T07:27:57.201Z,13.43
2023-03-11T07:30:25.486Z,14.93
2023-03-11T07:32:53.906Z,14.00
2023-03-11T07:35:22.214Z,12.43
2023-03-11T07:37:50.620Z,13.23
2023-03-11T07:40:19.926Z,13.00
2023-03-11T07:42:49.773Z,12.00
2023-03-11T07:45:20.226Z,12.00
2023-03-11T07:47:48.580Z,13.10
2023-03-11T07:50:17.435Z,12.00
2023-03-11T07:52:46.108Z,12.30
2023-03-11T07:55:14.456Z,11.90
2023-03-11T07:57:43.017Z,12.20
2023-03-11T08:00:15.186Z,12.30
2023-03-11T08:02:43.637Z,13.57
2023-03-11T08:05:12.870Z,13.17
2023-03-11T08:07:41.233Z,12.73
2023-03-11T08:10:11.686Z,12.83
2023-03-11T08:12:40.198Z,12.43
2023-03-11T08:15:12.232Z,12.30
2023-03-11T08:17:40.609Z,12.73
2023-03-11T08:20:11.317Z,11.93
2023-03-11T08:22:51.939Z,12.53
2023-03-11T08:25:25.547Z,11.43
2023-03-11T08:27:53.893Z,12.23
2023-03-11T08:30:24.305Z,12.37
2023-03-11T08:32:52.747Z,12.83
2023-03-11T08:35:21.343Z,12.20
2023-03-11T08:37:49.856Z,12.00
2023-03-11T08:40:18.838Z,11.70
2023-03-11T08:42:47.157Z,11.63
2023-03-11T08:45:16.173Z,11.40
2023-03-11T08:47:46.113Z,12.60
2023-03-11T08:50:17.783Z,12.20
2023-03-11T08:52:46.360Z,12.17
2023-03-11T08:55:17.640Z,12.00
2023-03-11T08:57:46.264Z,12.00
2023-03-11T09:00:15.900Z,12.27
2023-03-11T09:02:45.664Z,12.60
2023-03-11T09:05:14.148Z,12.17
2023-03-11T09:07:42.606Z,14.57
2023-03-11T09:10:13.300Z,12.37
2023-03-11T09:12:41.792Z,12.93
2023-03-11T09:15:11.785Z,12.70
2023-03-11T09:17:40.139Z,13.03
2023-03-11T09:20:13.612Z,13.97
2023-03-11T09:22:42.073Z,12.70
2023-03-11T09:25:13.712Z,12.37
2023-03-11T09:27:42.800Z,12.70
2023-03-11T09:30:13.913Z,12.77
2023-03-11T09:32:42.294Z,13.80
2023-03-11T09:35:12.320Z,12.37
2023-03-11T09:37:40.719Z,12.40
2023-03-11T09:40:13.365Z,12.33
2023-03-11T09:42:49.877Z,12.47
2023-03-11T09:45:21.049Z,12.77
2023-03-11T09:48:05.968Z,12.70
2023-03-11T09:50:40.482Z,12.60
2023-03-11T09:53:28.167Z,13.50
2023-03-11T09:55:59.886Z,13.50
2023-03-11T09:58:38.820Z,12.73
2023-03-11T10:01:17.937Z,12.60
2023-03-11T10:03:47.012Z,12.17
2023-03-11T10:06:21.467Z,11.90
2023-03-11T10:09:01.137Z,13.27
2023-03-11T10:12:06.908Z,12.10
2023-03-11T10:14:59.452Z,12.50
2023-03-11T10:17:47.800Z,12.93
2023-03-11T10:20:23.544Z,13.73
2023-03-11T10:23:08.214Z,11.87
2023-03-11T10:25:51.211Z,11.60
2023-03-11T10:28:23.763Z,12.13
2023-03-11T10:30:57.556Z,12.70
2023-03-11T10:33:32.883Z,12.77
2023-03-11T10:36:08.161Z,15.57
2023-03-11T10:38:42.451Z,12.50
2023-03-11T10:41:19.824Z,12.40
2023-03-11T10:43:54.792Z,12.63
2023-03-11T10:46:28.609Z,12.27
2023-03-11T10:48:57.251Z,12.10
2023-03-11T10:51:28.362Z,12.40
2023-03-11T10:54:00.453Z,12.33
2023-03-11T10:56:33.429Z,12.40
2023-03-11T10:59:03.944Z,11.97
2023-03-11T11:01:32.894Z,12.27
2023-03-11T11:04:04.138Z,11.80
2023-03-11T11:06:35.217Z,13.10
2023-03-11T11:09:27.045Z,12.20
2023-03-11T11:12:05.422Z,11.93
2023-03-11T11:14:47.881Z,13.60
2023-03-11T11:17:24.740Z,13.70
2023-03-11T11:19:54.419Z,13.00
2023-03-11T11:22:24.883Z,12.50
2023-03-11T11:24:56.313Z,11.80
2023-03-11T11:27:27.596Z,13.40
2023-03-11T11:30:17.614Z,12.20
2023-03-11T11:32:46.204Z,13.27
2023-03-11T11:35:17.164Z,12.80
2023-03-11T11:37:50.049Z,11.63
2023-03-11T11:40:32.308Z,12.20
2023-03-11T11:43:05.751Z,12.27
2023-03-11T11:45:40.199Z,11.80
2023-03-11T11:48:18.324Z,12.30
2023-03-11T11:50:53.201Z,11.70
2023-03-11T11:53:30.558Z,11.40
2023-03-11T11:56:01.462Z,12.40
2023-03-11T11:58:30.376Z,12.03
2023-03-11T12:01:15.744Z,11.83
2023-03-11T12:04:33.166Z,11.00
2023-03-11T12:07:17.511Z,11.37
2023-03-11T12:09:53.693Z,12.40
2023-03-11T12:12:31.464Z,12.00
2023-03-11T12:15:08.732Z,12.40
2023-03-11T12:17:42.209Z,12.27
2023-03-11T12:20:17.476Z,12.23
2023-03-11T12:23:11.587Z,12.50
2023-03-11T12:25:57.282Z,12.30
2023-03-11T12:28:39.702Z,12.70
2023-03-11T12:31:25.722Z,13.03
2023-03-11T12:34:00.275Z,12.97
2023-03-11T12:36:34.250Z,13.10
2023-03-11T12:39:25.118Z,12.50
2023-03-11T12:42:26.324Z,12.87
2023-03-11T12:45:54.527Z,14.17
2023-03-11T12:48:44.575Z,13.33
2023-03-11T12:51:41.955Z,12.80
2023-03-11T12:54:31.358Z,12.70
2023-03-11T12:57:04.949Z,12.57
2023-03-11T13:00:30.683Z,12.53
2023-03-11T13:03:56.933Z,11.90
2023-03-11T13:07:13.996Z,12.77
2023-03-11T13:10:03.491Z,12.53
2023-03-11T13:12:54.499Z,12.73
2023-03-11T13:15:41.736Z,12.80
2023-03-11T13:18:24.558Z,11.90
2023-03-11T13:20:59.654Z,12.27
2023-03-11T13:23:41.735Z,12.10
2023-03-11T13:26:38.943Z,12.73
2023-03-11T13:29:42.646Z,13.13
2023-03-11T13:32:27.511Z,13.13
2023-03-11T13:35:12.812Z,12.40
2023-03-11T13:37:51.730Z,12.73
2023-03-11T13:40:32.449Z,11.90
2023-03-11T13:43:04.829Z,12.53
2023-03-11T13:45:36.326Z,12.57
2023-03-11T13:48:11.808Z,12.07
2023-03-11T13:50:48.072Z,12.47
2023-03-11T13:53:23.827Z,12.57
2023-03-11T13:55:52.715Z,12.53
2023-03-11T13:58:24.977Z,12.90
2023-03-11T14:00:55.518Z,12.80
2023-03-11T14:03:26.129Z,12.50
2023-03-11T14:06:02.889Z,12.33
2023-03-11T14:08:35.003Z,12.40
2023-03-11T14:11:05.353Z,12.57
2023-03-11T14:13:40.168Z,12.80
2023-03-11T14:16:12.173Z,12.63
2023-03-11T14:18:42.878Z,12.50
2023-03-11T14:21:19.913Z,12.27
2023-03-11T14:23:51.166Z,12.70
2023-03-11T14:26:23.611Z,12.77
2023-03-11T14:28:55.970Z,12.10
2023-03-11T14:31:33.173Z,12.60
2023-03-11T14:34:06.864Z,12.20
2023-03-11T14:36:44.908Z,12.43
2023-03-11T14:39:29.182Z,11.87
2023-03-11T14:42:05.736Z,12.00
2023-03-11T14:44:37.995Z,12.40
2023-03-11T14:47:12.647Z,12.40
2023-03-11T14:49:41.918Z,12.20
2023-03-11T14:52:20.217Z,11.60
2023-03-11T14:54:50.105Z,11.80
2023-03-11T14:57:23.902Z,11.80
2023-03-11T14:59:54.186Z,11.60
2023-03-11T15:02:42.972Z,12.10
2023-03-11T15:05:19.963Z,12.13
2023-03-11T15:07:51.872Z,12.03
2023-03-11T15:10:20.390Z,11.93
2023-03-11T15:12:49.867Z,11.70
2023-03-11T15:15:27.568Z,11.70
2023-03-11T15:17:58.211Z,11.77
2023-03-11T15:20:31.490Z,11.40
2023-03-11T15:23:03.389Z,12.57
2023-03-11T15:25:35.518Z,12.00
2023-03-11T15:28:24.339Z,12.27
2023-03-11T15:30:53.180Z,12.03
2023-03-11T15:33:24.405Z,11.60
2023-03-11T15:35:52.836Z,11.77
2023-03-11T15:38:25.462Z,11.93
2023-03-11T15:40:56.145Z,11.80
2023-03-11T15:43:29.129Z,11.30
2023-03-11T15:45:59.285Z,11.50
2023-03-11T15:48:29.925Z,12.03
2023-03-11T15:51:00.947Z,11.20
2023-03-11T15:53:32.303Z,12.57
2023-03-11T15:56:08.311Z,12.00
2023-03-11T15:58:38.749Z,11.97
2023-03-11T16:01:07.662Z,12.30
2023-03-11T16:03:36.572Z,12.53
2023-03-11T16:06:05.172Z,12.13
2023-03-11T16:08:35.747Z,12.53
2023-03-11T16:11:04.074Z,11.60
2023-03-11T16:13:32.549Z,13.07
2023-03-11T16:16:02.351Z,12.33
2023-03-11T16:18:32.524Z,11.40
2023-03-11T16:21:02.288Z,12.73
2023-03-11T16:23:50.257Z,13.43
2023-03-11T16:26:19.884Z,13.30
2023-03-11T16:28:48.211Z,13.40
2023-03-11T16:31:16.619Z,13.90
2023-03-11T16:33:45.021Z,17.37
2023-03-11T16:36:13.343Z,15.00
2023-03-11T16:38:47.550Z,15.07
2023-03-11T16:41:16.817Z,15.10
2023-03-11T16:43:45.611Z,13.77
2023-03-11T16:46:14.211Z,15.07
2023-03-11T16:48:42.710Z,13.37
2023-03-11T16:51:11.276Z,13.00
2023-03-11T16:53:39.641Z,12.87
2023-03-11T16:56:09.537Z,11.77
2023-03-11T16:58:37.981Z,12.80
2023-03-11T17:01:06.393Z,12.43
2023-03-11T17:03:42.480Z,12.10
2023-03-11T17:06:12.059Z,12.50
2023-03-11T17:08:40.505Z,12.03
2023-03-11T17:11:17.027Z,12.33
2023-03-11T17:13:45.595Z,12.80
2023-03-11T17:16:15.057Z,13.00
2023-03-11T17:18:43.733Z,12.87
2023-03-11T17:21:15.320Z,12.20
2023-03-11T17:23:44.406Z,12.23
2023-03-11T17:26:17.180Z,11.43
2023-03-11T17:28:45.927Z,11.60
2023-03-11T17:31:15.413Z,11.93
2023-03-11T17:33:44.538Z,11.73
2023-03-11T17:36:16.307Z,12.33
2023-03-11T17:38:45.444Z,12.17
2023-03-11T17:41:18.564Z,12.17
2023-03-11T17:43:49.733Z,13.07
2023-03-11T17:46:22.571Z,19.17
2023-03-11T17:48:53.428Z,23.97
2023-03-11T17:51:23.648Z,16.93
2023-03-11T17:53:52.078Z,15.33
2023-03-11T17:56:23.127Z,19.07
2023-03-11T17:58:52.393Z,14.60
2023-03-11T18:01:24.008Z,16.33
2023-03-11T18:03:53.377Z,25.37
2023-03-11T18:06:22.726Z,59.90
2023-03-11T18:08:51.567Z,49.97
2023-03-11T18:11:25.260Z,39.83
2023-03-11T18:13:54.599Z,27.40
2023-03-11T18:16:25.870Z,21.27
2023-03-11T18:18:55.219Z,20.60
2023-03-11T18:21:26.211Z,15.30
2023-03-11T18:23:58.230Z,14.00
2023-03-11T18:26:30.913Z,13.77
2023-03-11T18:29:00.910Z,12.70
2023-03-11T18:31:32.771Z,13.00
2023-03-11T18:34:03.563Z,12.60
2023-03-11T18:36:34.602Z,13.50
2023-03-11T18:39:04.718Z,12.30
2023-03-11T18:41:36.149Z,12.67
2023-03-11T18:44:05.528Z,12.50
2023-03-11T18:46:34.201Z,12.70
2023-03-11T18:49:05.564Z,13.83
2023-03-11T18:51:34.497Z,13.17
2023-03-11T18:54:03.124Z,12.13
2023-03-11T18:56:32.088Z,13.13
2023-03-11T18:59:02.420Z,12.07
2023-03-11T19:01:31.870Z,12.30
2023-03-11T19:04:01.555Z,12.73
2023-03-11T19:06:30.774Z,13.13
2023-03-11T19:08:59.645Z,12.70
2023-03-11T19:11:27.968Z,13.10
2023-03-11T19:13:57.413Z,12.70
2023-03-11T19:16:27.764Z,12.93
2023-03-11T19:18:56.973Z,12.47
2023-03-11T19:21:26.078Z,12.43
2023-03-11T19:23:56.519Z,12.70
2023-03-11T19:26:41.479Z,12.63
2023-03-11T19:29:12.704Z,12.43
2023-03-11T19:31:43.539Z,12.70
2023-03-11T19:34:12.373Z,12.80
2023-03-11T19:36:40.925Z,13.23
2023-03-11T19:39:10.960Z,12.27
2023-03-11T19:41:39.674Z,13.70
2023-03-11T19:44:08.188Z,13.43
2023-03-11T19:46:36.664Z,13.10
2023-03-11T19:49:06.497Z,13.10
2023-03-11T19:51:49.005Z,12.30
2023-03-11T19:54:19.957Z,12.50
2023-03-11T19:56:49.086Z,12.53
2023-03-11T19:59:17.603Z,12.50
2023-03-11T20:01:45.992Z,12.60
2023-03-11T20:04:16.931Z,12.63
2023-03-11T20:06:46.130Z,12.13
2023-03-11T20:09:16.648Z,12.90
2023-03-11T20:11:46.569Z,12.63
2023-03-11T20:14:15.425Z,12.50
2023-03-11T20:16:44.268Z,12.57
2023-03-11T20:19:12.667Z,12.70
2023-03-11T20:21:45.641Z,12.80
2023-03-11T20:24:14.536Z,13.50
2023-03-11T20:26:43.185Z,13.47
2023-03-11T20:29:11.802Z,13.23
2023-03-11T20:31:40.218Z,13.07
2023-03-11T20:34:09.155Z,13.60
2023-03-11T20:36:38.102Z,13.30
2023-03-11T20:39:10.598Z,13.60
2023-03-11T20:41:41.614Z,12.70
2023-03-11T20:44:13.881Z,13.70
2023-03-11T20:46:42.678Z,12.20
2023-03-11T20:49:11.353Z,12.93
2023-03-11T20:51:41.801Z,13.03
2023-03-11T20:54:12.820Z,12.20
2023-03-11T20:56:41.627Z,12.40
2023-03-11T20:59:11.080Z,13.30
2023-03-11T21:01:40.020Z,12.47
2023-03-11T21:04:08.802Z,12.30
2023-03-11T21:06:41.931Z,12.20
2023-03-11T21:09:15.628Z,12.40
2023-03-11T21:11:44.263Z,12.40
2023-03-11T21:14:16.596Z,12.50
2023-03-11T21:16:46.474Z,12.63
2023-03-11T21:19:15.821Z,13.03
2023-03-11T21:21:47.552Z,12.67
2023-03-11T21:24:18.687Z,13.37
2023-03-11T21:26:47.576Z,14.00
2023-03-11T21:29:16.753Z,13.53
2023-03-11T21:31:47.456Z,13.43
2023-03-11T21:34:16.232Z,12.70
2023-03-11T21:36:45.047Z,13.50
2023-03-11T21:39:14.695Z,12.50
2023-03-11T21:41:44.646Z,12.60
2023-03-11T21:44:13.416Z,13.20
2023-03-11T21:46:41.892Z,13.90
2023-03-11T21:49:10.426Z,12.87
2023-03-11T21:51:39.236Z,12.93
2023-03-11T21:54:08.073Z,12.57
2023-03-11T21:56:40.063Z,13.20
2023-03-11T21:59:11.418Z,12.90
2023-03-11T22:01:40.840Z,13.30
2023-03-11T22:04:10.142Z,12.60
2023-03-11T22:06:39.513Z,12.60
2023-03-11T22:09:10.503Z,12.70
2023-03-11T22:11:41.646Z,12.50
2023-03-11T22:14:12.154Z,13.10
2023-03-11T22:16:41.127Z,12.70
2023-03-11T22:19:11.321Z,12.70
2023-03-11T22:21:43.118Z,12.93
2023-03-11T22:24:11.851Z,12.33
2023-03-11T22:26:41.254Z,12.57
2023-03-11T22:29:13.754Z,12.70
2023-03-11T22:31:42.317Z,13.10
2023-03-11T22:34:11.200Z,13.20
2023-03-11T22:36:40.720Z,12.60
2023-03-11T22:39:09.893Z,12.67
2023-03-11T22:41:38.447Z,13.50
2023-03-11T22:44:07.126Z,13.50
2023-03-11T22:46:37.024Z,12.63
2023-03-11T22:49:05.538Z,12.83
2023-03-11T22:51:34.167Z,13.63
2023-03-11T22:54:02.692Z,12.77
2023-03-11T22:56:31.527Z,12.70
2023-03-11T22:59:00.382Z,13.33
2023-03-11T23:01:29.942Z,13.20
2023-03-11T23:04:00.733Z,12.83
2023-03-11T23:06:29.952Z,12.93
2023-03-11T23:08:59.172Z,12.47
2023-03-11T23:11:28.159Z,13.40
2023-03-11T23:13:57.672Z,13.60
2023-03-11T23:16:28.155Z,12.77
2023-03-11T23:19:01.406Z,12.67
2023-03-11T23:21:33.413Z,13.80
2023-03-11T23:24:05.261Z,12.70
2023-03-11T23:26:35.486Z,12.60
2023-03-11T23:29:07.157Z,13.37
2023-03-11T23:31:36.702Z,13.90
2023-03-11T23:34:08.254Z,13.63
2023-03-11T23:36:37.207Z,13.27
2023-03-11T23:39:05.918Z,12.70
2023-03-11T23:41:34.367Z,12.90
2023-03-11T23:44:03.380Z,12.93
2023-03-11T23:46:32.400Z,13.40
2023-03-11T23:49:02.270Z,12.90
2023-03-11T23:51:32.496Z,12.80
2023-03-11T23:54:01.108Z,13.03
2023-03-11T23:56:29.845Z,12.83
2023-03-11T23:58:59.163Z,13.80
